createdAt,value
2018-08-04T00:03:38.085Z,19.35
2018-08-04T00:08:47.583Z,19.23
2018-08-04T00:13:56.593Z,19.13
2018-08-04T00:19:06.016Z,19.11
2018-08-04T00:24:14.825Z,18.96
2018-08-04T00:29:23.840Z,18.82
2018-08-04T00:34:33.028Z,18.70
2018-08-04T00:39:42.565Z,18.64
2018-08-04T00:44:51.895Z,18.58
2018-08-04T00:50:01.442Z,18.57
2018-08-04T00:55:10.275Z,18.55
2018-08-04T01:00:19.216Z,18.48
2018-08-04T01:05:28.767Z,18.39
2018-08-04T01:10:39.904Z,18.31
2018-08-04T01:15:49.600Z,18.29
2018-08-04T01:20:59.391Z,18.26
2018-08-04T01:26:09.580Z,18.18
2018-08-04T01:31:19.345Z,18.07
2018-08-04T01:36:29.032Z,17.95
2018-08-04T01:41:39.355Z,17.95
2018-08-04T01:46:49.093Z,17.90
2018-08-04T01:51:58.575Z,17.88
2018-08-04T01:57:09.662Z,17.73
2018-08-04T02:02:19.817Z,17.69
2018-08-04T02:07:29.432Z,17.67
2018-08-04T02:12:39.207Z,17.60
2018-08-04T02:17:49.307Z,17.55
2018-08-04T02:22:58.104Z,17.45
2018-08-04T02:28:07.235Z,17.39
2018-08-04T02:33:17.682Z,17.32
2018-08-04T02:38:29.468Z,17.27
2018-08-04T02:43:39.383Z,17.17
2018-08-04T02:48:50.037Z,17.17
2018-08-04T02:53:59.965Z,17.14
2018-08-04T02:59:11.986Z,17.07
2018-08-04T03:04:21.943Z,17.07
2018-08-04T03:09:30.619Z,16.98
2018-08-04T03:14:40.876Z,16.92
2018-08-04T03:19:50.403Z,16.89
2018-08-04T03:25:00.949Z,16.90
2018-08-04T03:30:11.001Z,16.86
2018-08-04T03:35:19.789Z,16.85
2018-08-04T03:40:28.901Z,16.86
2018-08-04T03:45:38.322Z,16.90
2018-08-04T03:50:58.410Z,16.98
2018-08-04T03:56:07.890Z,17.06
2018-08-04T04:01:16.780Z,17.11
2018-08-04T04:06:26.035Z,17.24
2018-08-04T04:11:35.475Z,17.36
2018-08-04T04:16:44.167Z,17.51
2018-08-04T04:21:52.783Z,17.70
2018-08-04T04:27:02.275Z,17.94
2018-08-04T04:32:11.366Z,18.15
2018-08-04T04:37:20.290Z,18.40
2018-08-04T04:42:29.463Z,20.00
2018-08-04T04:47:38.861Z,24.64
2018-08-04T04:52:47.885Z,27.96
2018-08-04T04:57:56.965Z,30.44
2018-08-04T05:03:06.853Z,31.01
2018-08-04T05:08:16.124Z,32.20
2018-08-04T05:13:26.135Z,33.87
2018-08-04T05:18:36.248Z,34.35
2018-08-04T05:23:46.049Z,34.61
2018-08-04T05:28:55.492Z,36.05
2018-08-04T05:34:05.329Z,36.60
2018-08-04T05:39:14.877Z,36.40
2018-08-04T05:44:24.813Z,37.18
2018-08-04T05:49:33.998Z,37.89
2018-08-04T05:54:43.626Z,37.51
2018-08-04T05:59:53.540Z,38.67
2018-08-04T06:05:03.517Z,37.49
2018-08-04T06:10:13.125Z,38.27
2018-08-04T06:15:22.292Z,39.49
2018-08-04T06:20:31.309Z,39.66
2018-08-04T06:25:40.438Z,39.86
2018-08-04T06:30:49.662Z,39.70
2018-08-04T06:35:59.174Z,39.06
2018-08-04T06:41:08.959Z,41.55
2018-08-04T06:46:19.246Z,41.26
2018-08-04T06:51:29.528Z,41.28
2018-08-04T06:56:38.895Z,39.91
2018-08-04T07:01:49.412Z,41.02
2018-08-04T07:06:58.894Z,39.97
2018-08-04T07:12:07.899Z,39.23
2018-08-04T07:17:16.904Z,40.95
2018-08-04T07:22:26.958Z,39.92
2018-08-04T07:27:36.625Z,40.80
2018-08-04T07:32:46.643Z,41.26
2018-08-04T07:37:56.771Z,41.43
2018-08-04T07:43:06.319Z,41.80
2018-08-04T07:48:15.617Z,41.67
2018-08-04T07:53:24.953Z,41.63
2018-08-04T07:58:34.089Z,42.28
2018-08-04T08:03:43.378Z,42.18
2018-08-04T08:08:52.566Z,42.95
2018-08-04T08:14:02.835Z,41.90
2018-08-04T08:19:12.940Z,39.89
2018-08-04T08:24:23.026Z,41.58
2018-08-04T08:29:32.480Z,41.06
2018-08-04T08:34:42.002Z,41.46
2018-08-04T08:39:51.730Z,40.91
2018-08-04T08:45:01.852Z,41.30
2018-08-04T08:50:12.262Z,41.31
2018-08-04T08:55:22.130Z,41.88
2018-08-04T09:00:31.358Z,41.88
2018-08-04T09:05:40.412Z,41.98
2018-08-04T09:10:50.107Z,41.38
2018-08-04T09:15:59.135Z,41.36
2018-08-04T09:21:09.256Z,43.18
2018-08-04T09:26:18.655Z,42.60
2018-08-04T09:31:28.640Z,43.52
2018-08-04T09:36:38.381Z,43.11
2018-08-04T09:41:48.149Z,43.23
2018-08-04T09:46:56.990Z,42.57
2018-08-04T09:52:07.004Z,42.48
2018-08-04T09:57:16.645Z,41.50
2018-08-04T10:02:26.389Z,42.07
2018-08-04T10:07:35.717Z,42.41
2018-08-04T10:12:45.813Z,42.95
2018-08-04T10:17:54.980Z,42.47
2018-08-04T10:23:04.927Z,41.85
2018-08-04T10:28:15.003Z,41.32
2018-08-04T10:33:24.306Z,37.92
2018-08-04T10:38:34.947Z,36.80
2018-08-04T10:43:45.447Z,36.60
2018-08-04T10:48:55.130Z,37.16
2018-08-04T10:54:04.369Z,36.58
2018-08-04T10:59:14.482Z,36.44
2018-08-04T11:04:24.378Z,36.66
2018-08-04T11:09:34.285Z,38.59
2018-08-04T11:14:44.433Z,39.95
2018-08-04T11:19:54.744Z,39.88
2018-08-04T11:25:04.157Z,37.90
2018-08-04T11:30:14.909Z,37.09
2018-08-04T11:35:24.692Z,36.23
2018-08-04T11:40:34.330Z,36.20
2018-08-04T11:45:44.238Z,37.27
2018-08-04T11:50:54.288Z,38.12
2018-08-04T11:56:04.520Z,37.33
2018-08-04T12:01:13.988Z,37.74
2018-08-04T12:06:23.486Z,37.21
2018-08-04T12:11:33.309Z,36.25
2018-08-04T12:16:43.024Z,35.93
2018-08-04T12:21:52.873Z,35.91
2018-08-04T12:27:02.586Z,35.96
2018-08-04T12:32:12.197Z,35.54
2018-08-04T12:37:22.182Z,35.11
2018-08-04T12:42:31.274Z,34.65
2018-08-04T12:47:40.820Z,34.76
2018-08-04T12:52:50.888Z,34.08
2018-08-04T12:58:00.305Z,34.61
2018-08-04T13:03:10.118Z,34.64
2018-08-04T13:08:19.296Z,35.12
2018-08-04T13:13:28.336Z,35.84
2018-08-04T13:18:37.445Z,36.12
2018-08-04T13:23:46.818Z,35.33
2018-08-04T13:28:55.960Z,36.77
2018-08-04T13:34:04.901Z,36.68
2018-08-04T13:39:15.294Z,36.41
2018-08-04T13:44:24.719Z,37.16
2018-08-04T13:49:34.598Z,37.76
2018-08-04T13:54:43.889Z,37.93
2018-08-04T13:59:53.359Z,37.69
2018-08-04T14:05:02.996Z,37.79
2018-08-04T14:10:12.391Z,36.18
2018-08-04T14:15:24.375Z,35.33
2018-08-04T14:20:34.036Z,36.26
2018-08-04T14:25:43.421Z,36.76
2018-08-04T14:30:53.333Z,37.09
2018-08-04T14:36:02.589Z,36.71
2018-08-04T14:41:11.792Z,36.55
2018-08-04T14:46:22.055Z,36.67
2018-08-04T15:02:25.324Z,36.83
2018-08-04T15:07:35.122Z,36.23
2018-08-04T15:12:44.745Z,35.56
2018-08-04T15:17:54.525Z,36.02
2018-08-04T15:23:03.991Z,35.94
2018-08-04T15:28:13.027Z,36.08
2018-08-04T15:33:22.579Z,36.38
2018-08-04T15:38:32.006Z,36.41
2018-08-04T15:43:41.149Z,36.17
2018-08-04T15:48:50.656Z,36.09
2018-08-04T15:54:00.531Z,35.90
2018-08-04T15:59:09.808Z,35.72
2018-08-04T16:04:18.744Z,34.91
2018-08-04T16:09:28.117Z,34.55
2018-08-04T16:14:37.519Z,34.82
2018-08-04T16:19:47.156Z,33.29
2018-08-04T16:24:56.365Z,33.91
2018-08-04T16:30:06.239Z,33.82
2018-08-04T16:35:15.543Z,33.05
2018-08-04T16:40:25.774Z,33.69
2018-08-04T16:45:35.538Z,33.69
2018-08-04T16:50:44.998Z,33.44
2018-08-04T16:55:54.307Z,33.24
2018-08-04T17:01:03.935Z,32.91
2018-08-04T17:06:13.847Z,32.89
2018-08-04T17:11:24.009Z,32.58
2018-08-04T17:16:33.317Z,32.42
2018-08-04T17:21:43.423Z,32.50
2018-08-04T17:26:54.000Z,32.07
2018-08-04T17:32:03.862Z,32.00
2018-08-04T17:37:13.706Z,32.10
2018-08-04T17:42:23.882Z,31.80
2018-08-04T17:47:33.905Z,31.67
2018-08-04T17:52:43.184Z,31.37
2018-08-04T17:57:52.480Z,30.98
2018-08-04T18:03:02.182Z,30.45
2018-08-04T18:08:12.646Z,30.12
2018-08-04T18:13:21.962Z,29.79
2018-08-04T18:18:31.329Z,29.45
2018-08-04T18:23:40.936Z,29.15
2018-08-04T18:28:50.208Z,28.95
2018-08-04T18:33:59.451Z,28.84
2018-08-04T18:39:08.572Z,28.75
2018-08-04T18:44:17.793Z,28.50
2018-08-04T18:49:26.801Z,28.34
2018-08-04T18:54:36.454Z,28.12
2018-08-04T18:59:45.978Z,27.86
2018-08-04T19:04:55.607Z,27.83
2018-08-04T19:10:07.646Z,27.74
2018-08-04T19:15:16.713Z,27.46
2018-08-04T19:20:26.063Z,27.39
2018-08-04T19:25:34.945Z,27.06
2018-08-04T19:30:44.507Z,26.92
2018-08-04T19:35:54.090Z,26.86
2018-08-04T19:41:03.405Z,26.95
2018-08-04T19:46:13.598Z,26.80
2018-08-04T19:51:23.302Z,26.64
2018-08-04T19:56:32.384Z,26.36
2018-08-04T20:01:41.826Z,26.16
2018-08-04T20:06:51.417Z,26.41
2018-08-04T20:12:00.528Z,26.37
2018-08-04T20:17:10.519Z,26.41
2018-08-04T20:22:19.909Z,26.40
2018-08-04T20:27:29.700Z,26.37
2018-08-04T20:32:38.301Z,26.24
2018-08-04T20:37:47.804Z,26.33
2018-08-04T20:42:57.116Z,26.37
2018-08-04T20:48:06.447Z,26.24
2018-08-04T20:53:15.393Z,26.11
2018-08-04T20:58:25.526Z,25.98
2018-08-04T21:03:34.606Z,25.83
2018-08-04T21:08:43.747Z,25.73
2018-08-04T21:13:53.075Z,25.61
2018-08-04T21:19:01.976Z,25.51
2018-08-04T21:24:12.005Z,25.32
2018-08-04T21:29:20.867Z,24.98
2018-08-04T21:34:34.123Z,24.94
2018-08-04T21:39:43.375Z,24.80
2018-08-04T21:44:52.835Z,24.66
2018-08-04T21:50:01.924Z,24.56
2018-08-04T21:55:11.135Z,24.29
2018-08-04T22:00:20.529Z,24.04
2018-08-04T22:05:29.649Z,24.07
2018-08-04T22:10:39.070Z,24.21
2018-08-04T22:15:47.851Z,24.39
2018-08-04T22:20:57.604Z,24.31
2018-08-04T22:26:06.823Z,24.12
2018-08-04T22:31:16.146Z,24.08
2018-08-04T22:36:25.619Z,24.06
2018-08-04T22:41:34.539Z,24.09
2018-08-04T22:46:43.611Z,24.10
2018-08-04T22:51:52.754Z,24.03
2018-08-04T22:57:01.674Z,23.90
2018-08-04T23:02:10.837Z,23.71
2018-08-04T23:07:19.656Z,23.65
2018-08-04T23:12:29.270Z,23.55
2018-08-04T23:17:38.312Z,23.36
2018-08-04T23:22:47.231Z,23.15
2018-08-04T23:27:56.564Z,23.02
2018-08-04T23:33:05.519Z,22.91
2018-08-04T23:38:14.675Z,22.69
2018-08-04T23:43:23.810Z,22.51
2018-08-04T23:48:33.179Z,22.46
2018-08-04T23:53:42.634Z,22.82
2018-08-04T23:58:52.100Z,23.02
